Time;durP1;ratioP1;P1;durP2;ratioP2;P2;SDS_P1;SDS_P2;PMS_P1;PMS_P2;Temp;Humidity;BMP_temperature;BMP_pressure;BME280_temperature;BME280_humidity;BME280_pressure;Samples;Min_cycle;Max_cycle;Signal;HPM_P1;HPM_P2
2023/06/03 00:01:29;;;;;;;10.93;2.35;;;;;;;14.07;75.38;98665.06;4115076;28;20253;-45
2023/06/03 00:03:34;;;;;;;7.10;2.25;;;;;;;14.20;74.67;98664.59;4111354;28;20227;-44
2023/06/03 00:05:36;;;;;;;3.05;1.75;;;;;;;14.32;74.46;98664.38;4132285;28;20675;-45
2023/06/03 00:07:37;;;;;;;3.95;2.58;;;;;;;14.32;74.27;98667.97;4116864;28;20237;-45
2023/06/03 00:09:39;;;;;;;3.45;2.50;;;;;;;14.32;74.62;98659.69;4115007;28;20213;-45
2023/06/03 00:11:42;;;;;;;4.35;1.90;;;;;;;14.44;73.97;98660.25;4114048;28;20238;-45
2023/06/03 00:13:44;;;;;;;4.95;2.05;;;;;;;14.54;73.71;98665.81;4114640;28;20234;-45
2023/06/03 00:15:46;;;;;;;5.25;2.20;;;;;;;14.55;73.74;98664.72;4115768;28;20761;-44
2023/06/03 00:17:48;;;;;;;3.55;1.88;;;;;;;14.55;73.39;98661.94;4101718;28;20605;-46
2023/06/03 00:19:51;;;;;;;5.57;2.25;;;;;;;14.56;73.44;98660.84;4132089;28;20210;-45
2023/06/03 00:21:54;;;;;;;4.53;2.20;;;;;;;14.58;73.37;98655.88;4114797;28;20198;-45
2023/06/03 00:23:56;;;;;;;3.03;2.08;;;;;;;14.58;73.49;98666.91;4112398;28;20226;-45
2023/06/03 00:25:58;;;;;;;3.85;2.28;;;;;;;14.60;73.76;98670.22;4109834;28;20203;-45
2023/06/03 00:27:59;;;;;;;2.95;2.17;;;;;;;14.50;73.79;98675.69;4108419;28;20203;-45
2023/06/03 00:30:05;;;;;;;3.28;2.35;;;;;;;14.49;74.01;98674.06;4093897;29;20311;-44
2023/06/03 00:32:07;;;;;;;3.85;2.47;;;;;;;14.42;74.20;98669.91;4114463;28;20233;-45
2023/06/03 00:34:09;;;;;;;5.63;2.78;;;;;;;14.35;74.22;98672.91;4116170;28;20234;-43
2023/06/03 00:36:11;;;;;;;7.93;2.70;;;;;;;14.28;74.66;98671.50;4132172;28;20214;-44
2023/06/03 00:38:13;;;;;;;5.03;2.67;;;;;;;14.21;74.84;98677.25;4100277;28;20247;-44
2023/06/03 00:40:15;;;;;;;6.53;2.47;;;;;;;14.16;75.02;98673.63;4117172;28;20214;-44
2023/06/03 00:42:17;;;;;;;4.65;1.95;;;;;;;14.23;75.15;98669.56;4109146;28;20620;-44
2023/06/03 00:44:18;;;;;;;3.80;1.85;;;;;;;14.24;75.15;98679.47;4120086;28;20248;-43
2023/06/03 00:46:20;;;;;;;3.15;2.60;;;;;;;14.23;75.15;98675.06;4115325;28;20210;-44
2023/06/03 00:48:22;;;;;;;3.13;2.33;;;;;;;14.14;75.30;98673.06;4113447;28;20209;-45
2023/06/03 00:50:24;;;;;;;4.07;2.30;;;;;;;14.15;75.12;98663.69;4111677;28;20210;-43
2023/06/03 00:52:26;;;;;;;12.00;2.38;;;;;;;14.10;75.65;98664.50;4110986;28;20720;-43
2023/06/03 00:54:28;;;;;;;2.55;1.67;;;;;;;13.99;75.52;98665.59;4107663;28;20265;-44
2023/06/03 00:56:32;;;;;;;4.05;2.53;;;;;;;14.01;75.54;98660.63;4092782;28;20214;-44
2023/06/03 00:58:33;;;;;;;4.35;2.63;;;;;;;13.98;75.90;98661.16;4112480;28;20246;-43
2023/06/03 01:00:35;;;;;;;2.38;2.17;;;;;;;13.91;76.24;98666.06;4112393;28;20264;-44
2023/06/03 01:02:38;;;;;;;4.82;2.17;;;;;;;13.88;76.39;98661.13;4112624;28;20257;-43
2023/06/03 01:04:48;;;;;;;3.17;2.20;;;;;;;13.86;76.32;98660.56;4115770;28;20308;-44
2023/06/03 01:06:55;;;;;;;4.97;1.95;;;;;;;13.81;76.62;98659.69;4126565;28;20676;-43
2023/06/03 01:09:09;;;;;;;2.42;2.22;;;;;;;13.79;76.98;98657.25;4113016;28;20211;-44
2023/06/03 01:11:21;;;;;;;6.25;2.28;;;;;;;13.75;76.85;98656.09;4113931;28;20202;-44
2023/06/03 01:13:27;;;;;;;4.07;2.63;;;;;;;13.70;77.49;98653.31;4127504;28;20666;-43
2023/06/03 01:15:31;;;;;;;5.30;2.70;;;;;;;13.63;77.59;98658.22;4113365;28;20607;-43
2023/06/03 01:17:36;;;;;;;4.55;2.33;;;;;;;13.61;77.55;98649.44;4117493;28;20305;-44
2023/06/03 01:19:48;;;;;;;3.40;2.55;;;;;;;13.28;78.96;98655.25;4112587;28;20295;-43
2023/06/03 01:21:53;;;;;;;5.80;2.53;;;;;;;13.33;78.35;98647.06;4098619;28;20299;-44
2023/06/03 01:23:56;;;;;;;5.20;3.65;;;;;;;13.37;78.68;98647.34;4095477;28;20267;-44
2023/06/03 01:25:58;;;;;;;5.13;2.05;;;;;;;13.40;78.89;98647.66;4116028;28;20211;-43
2023/06/03 01:28:00;;;;;;;2.60;2.08;;;;;;;13.46;78.43;98645.75;4112993;28;20600;-44
2023/06/03 01:30:04;;;;;;;3.28;2.00;;;;;;;13.45;78.57;98644.94;4126303;28;20276;-44
2023/06/03 01:32:06;;;;;;;4.05;2.60;;;;;;;13.40;78.78;98641.31;4113160;28;20277;-44
2023/06/03 01:34:08;;;;;;;4.15;2.22;;;;;;;13.18;79.63;98649.66;4128907;28;20325;-44
2023/06/03 01:36:09;;;;;;;3.47;2.38;;;;;;;13.32;79.00;98650.06;4128197;28;20654;-44
2023/06/03 01:38:11;;;;;;;8.45;3.20;;;;;;;13.29;79.05;98643.16;4114114;28;20214;-43
2023/06/03 01:40:14;;;;;;;3.63;2.22;;;;;;;13.38;79.25;98638.81;4106591;28;20226;-43
2023/06/03 01:42:16;;;;;;;3.88;2.97;;;;;;;13.34;78.94;98640.47;4107313;28;20229;-44
2023/06/03 01:44:18;;;;;;;3.67;2.42;;;;;;;13.43;78.71;98640.78;4091800;28;20701;-44
2023/06/03 01:46:20;;;;;;;7.93;2.67;;;;;;;13.33;79.23;98640.72;4109771;28;20257;-44
2023/06/03 01:48:22;;;;;;;2.97;2.03;;;;;;;13.24;78.94;98637.63;4097379;28;20222;-44
2023/06/03 01:50:23;;;;;;;4.47;2.40;;;;;;;13.26;79.27;98638.22;4112329;28;20206;-44
2023/06/03 01:52:26;;;;;;;2.88;2.55;;;;;;;13.20;79.56;98636.50;4113704;28;20231;-43
2023/06/03 01:54:28;;;;;;;4.00;2.60;;;;;;;13.18;79.52;98644.16;4113814;28;20298;-43
2023/06/03 01:56:30;;;;;;;3.50;2.53;;;;;;;13.10;80.17;98636.41;4113003;28;20263;-44
2023/06/03 01:58:32;;;;;;;7.25;2.22;;;;;;;13.06;80.47;98640.81;4112954;28;20601;-44
2023/06/03 02:00:33;;;;;;;3.75;2.40;;;;;;;13.02;80.19;98649.81;4111621;28;20214;-44
2023/06/03 02:02:35;;;;;;;3.75;2.22;;;;;;;13.04;80.61;98645.72;4112921;28;20205;-44
2023/06/03 02:04:37;;;;;;;4.28;2.83;;;;;;;13.03;80.74;98651.50;4111398;28;20751;-44
2023/06/03 02:06:39;;;;;;;5.68;2.40;;;;;;;12.98;80.68;98649.50;4110838;28;20211;-44
2023/06/03 02:08:40;;;;;;;3.53;2.45;;;;;;;12.81;81.31;98651.53;4109625;28;20211;-44
2023/06/03 02:10:42;;;;;;;8.88;2.70;;;;;;;12.86;81.75;98654.34;4113623;28;20203;-44
2023/06/03 02:12:44;;;;;;;3.70;2.50;;;;;;;12.82;81.55;98642.19;4113357;28;20242;-44
2023/06/03 02:14:46;;;;;;;3.05;2.10;;;;;;;12.83;81.43;98645.78;4106474;28;20281;-44
2023/06/03 02:16:48;;;;;;;3.95;2.42;;;;;;;12.88;81.25;98648.56;4109381;28;20692;-44
2023/06/03 02:18:51;;;;;;;3.65;2.20;;;;;;;12.83;81.06;98646.59;4108677;28;20222;-43
2023/06/03 02:20:52;;;;;;;5.60;2.53;;;;;;;12.71;81.82;98645.94;4107578;28;20557;-43
2023/06/03 02:22:54;;;;;;;6.35;2.40;;;;;;;12.74;81.25;98648.19;4109589;28;20664;-43
2023/06/03 02:24:57;;;;;;;3.67;2.47;;;;;;;12.72;81.69;98639.38;4106144;28;20262;-44
2023/06/03 02:27:01;;;;;;;4.40;2.55;;;;;;;12.69;81.94;98637.13;4105293;28;20237;-44
2023/06/03 02:29:05;;;;;;;2.47;2.25;;;;;;;12.71;82.05;98639.63;4112487;28;20238;-44
2023/06/03 02:31:07;;;;;;;4.60;2.53;;;;;;;12.74;81.94;98634.44;4112516;28;20210;-44
2023/06/03 02:33:08;;;;;;;4.47;2.75;;;;;;;12.76;81.88;98643.25;4127508;28;20246;-44
2023/06/03 02:35:10;;;;;;;2.15;1.95;;;;;;;12.66;82.33;98651.41;4110624;28;20214;-44
2023/06/03 02:37:13;;;;;;;2.80;2.28;;;;;;;12.67;82.19;98653.06;4096067;28;20267;-43
2023/06/03 02:39:16;;;;;;;3.88;2.25;;;;;;;12.66;81.99;98642.31;4110578;28;20214;-44
2023/06/03 02:41:18;;;;;;;4.30;2.60;;;;;;;12.68;82.26;98642.88;4112714;28;20647;-44
2023/06/03 02:43:19;;;;;;;5.25;2.15;;;;;;;12.57;82.66;98646.66;4127887;28;20735;-43
2023/06/03 02:45:21;;;;;;;5.95;2.28;;;;;;;12.59;82.49;98647.19;4112366;28;20203;-43
2023/06/03 02:47:23;;;;;;;6.60;2.40;;;;;;;12.52;82.91;98644.69;4111986;28;20269;-43
2023/06/03 02:49:24;;;;;;;7.07;1.95;;;;;;;12.49;82.88;98647.09;4096102;28;20614;-44
2023/06/03 02:51:26;;;;;;;8.88;2.35;;;;;;;12.49;82.88;98647.94;4126308;28;20673;-43
2023/06/03 02:53:28;;;;;;;3.35;2.20;;;;;;;12.52;82.88;98649.31;4109790;28;20236;-43
2023/06/03 02:55:33;;;;;;;3.20;2.33;;;;;;;12.45;83.18;98655.00;4110161;28;20644;-44
2023/06/03 02:57:34;;;;;;;2.58;2.38;;;;;;;12.38;83.43;98653.56;4110169;28;20210;-44
2023/06/03 02:59:36;;;;;;;3.90;2.28;;;;;;;12.46;83.43;98664.09;4109732;28;20218;-44
2023/06/03 03:01:38;;;;;;;4.95;2.50;;;;;;;12.29;83.31;98661.44;4111731;28;20266;-43
2023/06/03 03:03:40;;;;;;;3.88;2.28;;;;;;;12.22;83.78;98666.28;4107566;28;20696;-43
2023/06/03 03:05:42;;;;;;;4.85;2.55;;;;;;;12.20;84.04;98663.00;4110397;28;20577;-44
2023/06/03 03:07:44;;;;;;;4.47;2.10;;;;;;;12.09;84.23;98672.16;4103975;28;20605;-43
2023/06/03 03:09:46;;;;;;;2.65;2.38;;;;;;;12.07;84.46;98670.75;4104544;28;20340;-43
2023/06/03 03:11:48;;;;;;;2.65;2.45;;;;;;;12.02;84.50;98668.78;4123914;28;20261;-44
2023/06/03 03:13:49;;;;;;;3.95;2.35;;;;;;;11.99;84.86;98671.22;4111465;28;20317;-43
2023/06/03 03:15:51;;;;;;;3.45;2.42;;;;;;;11.92;84.72;98674.13;4108088;28;20314;-44
2023/06/03 03:17:53;;;;;;;3.50;2.40;;;;;;;11.97;84.68;98671.47;4102585;28;20813;-43
2023/06/03 03:19:55;;;;;;;3.58;2.80;;;;;;;11.89;84.85;98666.44;4110817;28;20237;-44
2023/06/03 03:21:57;;;;;;;2.83;2.28;;;;;;;11.88;85.14;98670.25;4108525;28;20215;-44
2023/06/03 03:23:58;;;;;;;3.30;2.50;;;;;;;11.92;85.36;98682.38;4110682;28;20238;-44
2023/06/03 03:26:01;;;;;;;5.00;2.85;;;;;;;11.79;85.10;98682.75;4092650;28;20299;-43
2023/06/03 03:28:03;;;;;;;17.40;3.33;;;;;;;11.82;85.65;98674.00;4110737;28;20206;-43
2023/06/03 03:30:06;;;;;;;3.97;2.22;;;;;;;11.73;85.47;98677.44;4111041;28;20202;-43
2023/06/03 03:32:08;;;;;;;4.32;2.83;;;;;;;11.70;85.98;98677.97;4128078;28;20214;-43
2023/06/03 03:34:09;;;;;;;3.63;2.15;;;;;;;11.63;86.41;98671.84;4111890;28;20234;-44
2023/06/03 03:36:20;;;;;;;3.42;2.35;;;;;;;11.69;86.31;98671.66;4124790;28;20265;-43
2023/06/03 03:38:22;;;;;;;3.85;2.70;;;;;;;11.60;86.44;98673.19;4111464;28;20278;-42
2023/06/03 03:40:24;;;;;;;4.03;2.85;;;;;;;11.65;86.55;98677.88;4110316;28;20259;-43
2023/06/03 03:42:26;;;;;;;5.13;2.40;;;;;;;11.58;86.84;98678.06;4125872;28;20234;-43
2023/06/03 03:44:31;;;;;;;3.45;2.35;;;;;;;11.57;86.48;98676.38;4111807;28;20218;-43
2023/06/03 03:46:33;;;;;;;3.15;2.40;;;;;;;11.61;87.00;98672.09;4094410;28;20212;-44
2023/06/03 03:48:35;;;;;;;5.03;2.22;;;;;;;11.52;87.06;98676.28;4125481;28;20211;-43
2023/06/03 03:50:48;;;;;;;3.63;1.90;;;;;;;11.50;86.64;98672.16;4106968;28;20202;-44
2023/06/03 03:52:50;;;;;;;3.17;2.67;;;;;;;11.49;87.08;98668.59;4107699;28;20235;-43
2023/06/03 03:54:52;;;;;;;5.18;2.53;;;;;;;11.53;86.93;98672.50;4106766;28;20215;-43
2023/06/03 03:56:55;;;;;;;7.10;2.38;;;;;;;11.48;87.03;98675.16;4109857;28;20298;-43
2023/06/03 03:58:57;;;;;;;5.30;2.88;;;;;;;11.49;87.06;98682.28;4109590;28;20245;-44
2023/06/03 04:01:01;;;;;;;5.40;2.78;;;;;;;11.46;87.37;98682.81;4110440;28;20214;-44
2023/06/03 04:03:04;;;;;;;5.70;2.70;;;;;;;11.50;87.48;98677.66;4117181;28;20922;-44
2023/06/03 04:05:06;;;;;;;2.80;1.73;;;;;;;11.46;87.74;98666.38;4125032;28;20282;-42
2023/06/03 04:07:16;;;;;;;3.97;2.58;;;;;;;11.45;87.88;98675.63;4110807;28;20307;-43
2023/06/03 04:09:18;;;;;;;6.05;3.13;;;;;;;11.43;87.89;98677.81;4110999;28;20313;-43
2023/06/03 04:11:36;;;;;;;2.17;2.00;;;;;;;11.45;87.80;98678.38;4094225;28;20223;-44
2023/06/03 04:13:40;;;;;;;1.90;1.77;;;;;;;11.49;88.18;98671.31;4125679;28;20229;-44
2023/06/03 04:15:43;;;;;;;3.17;2.38;;;;;;;11.49;88.12;98673.22;4109344;28;20209;-43
2023/06/03 04:17:45;;;;;;;3.30;2.58;;;;;;;11.50;88.42;98667.50;4111158;28;20670;-43
2023/06/03 04:19:48;;;;;;;3.03;2.40;;;;;;;11.53;88.64;98669.75;4095488;28;20214;-43
2023/06/03 04:21:49;;;;;;;4.85;2.25;;;;;;;11.53;88.75;98667.00;4110992;28;20203;-45
2023/06/03 04:23:51;;;;;;;4.68;3.72;;;;;;;11.56;88.62;98674.72;4094952;28;20640;-43
2023/06/03 04:25:53;;;;;;;3.10;2.10;;;;;;;11.62;88.74;98671.00;4111551;28;20211;-43
2023/06/03 04:27:55;;;;;;;4.00;2.30;;;;;;;11.46;89.08;98671.84;4111103;28;20257;-44
2023/06/03 04:29:57;;;;;;;4.72;2.72;;;;;;;11.54;89.58;98673.31;4111748;28;20215;-43
2023/06/03 04:31:59;;;;;;;3.50;2.30;;;;;;;11.59;89.21;98671.53;4109252;28;20265;-43
2023/06/03 04:34:00;;;;;;;10.13;2.97;;;;;;;11.64;89.27;98679.78;4110469;28;20290;-44
2023/06/03 04:36:02;;;;;;;4.65;2.67;;;;;;;11.60;89.48;98678.66;4111088;28;20210;-44
2023/06/03 04:38:04;;;;;;;2.85;2.30;;;;;;;11.58;89.64;98669.84;4107302;28;20265;-43
2023/06/03 04:40:08;;;;;;;4.95;3.00;;;;;;;11.63;89.74;98671.84;4111116;28;20218;-44
2023/06/03 04:42:13;;;;;;;6.35;2.85;;;;;;;11.67;89.61;98668.34;4093445;28;20211;-43
2023/06/03 04:44:15;;;;;;;2.97;2.67;;;;;;;11.66;89.37;98666.69;4114028;28;20739;-44
2023/06/03 04:46:16;;;;;;;3.20;2.70;;;;;;;11.73;89.55;98667.31;4114456;28;20218;-44
2023/06/03 04:48:22;;;;;;;2.25;2.05;;;;;;;11.82;89.49;98671.28;4104028;28;20593;-44
2023/06/03 04:50:24;;;;;;;7.80;2.83;;;;;;;11.64;90.38;98668.81;4113100;28;20707;-43
2023/06/03 04:52:28;;;;;;;4.38;2.72;;;;;;;11.75;89.94;98670.63;4128572;28;20222;-44
2023/06/03 04:54:30;;;;;;;3.90;2.20;;;;;;;11.86;89.21;98661.47;4128927;28;20711;-44
2023/06/03 04:56:31;;;;;;;4.10;3.70;;;;;;;11.91;89.23;98663.44;4111846;28;20207;-44
2023/06/03 04:58:33;;;;;;;4.05;2.13;;;;;;;11.96;88.94;98660.78;4090760;28;20258;-44
2023/06/03 05:00:36;;;;;;;5.25;2.28;;;;;;;12.01;88.71;98663.56;4112098;28;20202;-44
2023/06/03 05:02:38;;;;;;;4.25;2.67;;;;;;;12.11;88.45;98661.75;4113914;28;20207;-44
2023/06/03 05:04:40;;;;;;;3.15;1.92;;;;;;;12.16;88.20;98664.56;4112169;28;20338;-45
2023/06/03 05:06:42;;;;;;;2.38;2.08;;;;;;;12.21;88.32;98670.13;4114743;28;20206;-44
2023/06/03 05:08:44;;;;;;;3.90;2.38;;;;;;;12.34;87.79;98672.47;4111816;28;20708;-44
2023/06/03 05:10:46;;;;;;;4.32;2.83;;;;;;;12.33;88.50;98673.56;4113510;28;20672;-44
2023/06/03 05:12:49;;;;;;;3.40;2.20;;;;;;;12.42;87.95;98677.50;4114215;28;21119;-44
2023/06/03 05:14:51;;;;;;;4.32;2.88;;;;;;;12.53;87.73;98673.78;4108940;28;20235;-44
2023/06/03 05:16:52;;;;;;;4.03;2.10;;;;;;;12.60;87.96;98673.56;4103563;28;20211;-44
2023/06/03 05:18:54;;;;;;;3.75;2.35;;;;;;;12.67;87.86;98668.69;4114335;28;20253;-44
2023/06/03 05:20:56;;;;;;;5.40;2.70;;;;;;;12.71;88.05;98670.66;4111843;28;20672;-44
2023/06/03 05:22:58;;;;;;;3.67;2.45;;;;;;;12.78;87.03;98665.78;4112450;28;20265;-44
2023/06/03 05:25:02;;;;;;;3.08;2.17;;;;;;;12.95;86.58;98674.75;4113430;28;20202;-44
2023/06/03 05:27:06;;;;;;;4.60;3.13;;;;;;;12.90;88.73;98674.69;4116394;28;20677;-44
2023/06/03 05:29:08;;;;;;;3.88;2.53;;;;;;;12.99;87.56;98670.41;4113710;28;20214;-44
2023/06/03 05:31:10;;;;;;;7.72;2.67;;;;;;;13.04;87.75;98675.94;4111486;28;20796;-44
2023/06/03 05:33:29;;;;;;;5.75;3.72;;;;;;;12.96;88.79;98667.38;4113682;28;20250;-43
2023/06/03 05:35:30;;;;;;;4.70;2.20;;;;;;;13.21;88.21;98671.13;4128910;28;20648;-44
2023/06/03 05:37:32;;;;;;;4.40;3.17;;;;;;;13.37;89.02;98667.41;4112270;28;20289;-43
2023/06/03 05:39:35;;;;;;;4.95;2.80;;;;;;;13.47;88.65;98663.91;4112442;28;20206;-44
2023/06/03 05:41:37;;;;;;;5.90;2.75;;;;;;;13.74;87.19;98661.88;4110236;28;20202;-44
2023/06/03 05:43:41;;;;;;;5.63;2.90;;;;;;;14.01;86.05;98660.63;4113027;28;20241;-45
2023/06/03 05:45:44;;;;;;;5.32;2.50;;;;;;;14.22;86.21;98656.91;4113383;28;20635;-44
2023/06/03 05:47:45;;;;;;;3.78;2.90;;;;;;;14.26;86.51;98663.53;4117398;28;20288;-44
2023/06/03 05:49:47;;;;;;;3.53;2.35;;;;;;;14.64;83.84;98662.25;4106080;28;20643;-44
2023/06/03 05:51:50;;;;;;;5.90;2.03;;;;;;;14.95;82.35;98662.00;4110614;28;20215;-44
2023/06/03 05:53:51;;;;;;;5.95;2.80;;;;;;;14.83;81.26;98658.69;4112669;28;20281;-44
2023/06/03 05:55:53;;;;;;;3.95;2.22;;;;;;;15.00;82.75;98664.78;4107491;28;20203;-44
2023/06/03 05:57:55;;;;;;;8.13;2.88;;;;;;;14.99;82.50;98663.13;4108071;28;20754;-44
2023/06/03 05:59:57;;;;;;;3.17;2.30;;;;;;;15.20;81.66;98670.31;4105250;28;20333;-44
2023/06/03 06:01:59;;;;;;;4.72;3.35;;;;;;;15.40;81.00;98656.53;4112159;28;20636;-44
2023/06/03 06:04:01;;;;;;;5.65;2.22;;;;;;;15.56;79.82;98655.41;4112579;28;20230;-44
2023/06/03 06:06:03;;;;;;;5.85;2.55;;;;;;;15.74;79.81;98659.50;4103775;28;20673;-44
2023/06/03 06:08:05;;;;;;;2.95;2.60;;;;;;;15.64;78.76;98660.34;4104043;28;20732;-44
2023/06/03 06:10:06;;;;;;;9.85;3.42;;;;;;;15.16;77.30;98658.16;4110649;28;20230;-45
2023/06/03 06:12:08;;;;;;;4.00;2.50;;;;;;;15.20;77.13;98662.03;4111745;28;20256;-44
2023/06/03 06:14:11;;;;;;;5.68;3.33;;;;;;;15.35;77.33;98658.47;4112327;28;20239;-44
2023/06/03 06:16:13;;;;;;;3.17;2.60;;;;;;;15.15;77.22;98661.19;4128097;28;20235;-44
2023/06/03 06:18:15;;;;;;;5.13;3.08;;;;;;;15.32;76.66;98668.13;4111132;28;20210;-44
2023/06/03 06:20:16;;;;;;;3.97;3.10;;;;;;;15.27;75.63;98665.34;4102657;28;20243;-44
2023/06/03 06:22:18;;;;;;;7.18;2.70;;;;;;;15.31;76.50;98671.94;4107054;28;20270;-45
2023/06/03 06:24:20;;;;;;;4.88;3.40;;;;;;;15.46;75.17;98669.22;4114086;28;20955;-44
2023/06/03 06:26:22;;;;;;;9.27;3.92;;;;;;;15.40;74.56;98675.84;4097337;28;20693;-44
2023/06/03 06:28:27;;;;;;;4.47;3.45;;;;;;;15.53;74.67;98663.41;4095441;28;20196;-44
2023/06/03 06:30:29;;;;;;;5.50;3.03;;;;;;;15.49;74.54;98671.41;4106637;28;20218;-43
2023/06/03 06:32:48;;;;;;;5.35;2.88;;;;;;;15.51;74.54;98677.47;4097773;28;20217;-44
2023/06/03 06:34:50;;;;;;;4.63;2.72;;;;;;;15.41;74.76;98683.00;4110141;28;20230;-44
2023/06/03 06:36:52;;;;;;;4.28;2.65;;;;;;;15.64;74.18;98676.88;4112214;28;20206;-44
2023/06/03 06:38:55;;;;;;;5.47;3.00;;;;;;;15.70;75.32;98673.03;4111275;28;20250;-44
2023/06/03 06:40:57;;;;;;;4.10;2.17;;;;;;;15.86;73.68;98674.66;4112462;28;20249;-44
2023/06/03 06:42:58;;;;;;;4.88;3.25;;;;;;;16.11;74.12;98676.50;4111824;28;20297;-44
2023/06/03 06:45:30;;;;;;;5.93;2.65;;;;;;;16.19;72.72;98662.94;4110971;28;20584;-44
2023/06/03 06:47:37;;;;;;;4.82;2.80;;;;;;;15.82;72.71;98673.56;4106972;28;20237;-44
2023/06/03 06:49:39;;;;;;;6.03;3.20;;;;;;;16.01;72.92;98666.31;4105766;28;20211;-44
2023/06/03 06:51:42;;;;;;;7.22;3.97;;;;;;;15.94;72.66;98665.78;4111101;28;20308;-44
2023/06/03 06:53:47;;;;;;;4.72;3.05;;;;;;;16.28;71.82;98671.44;4111690;28;20222;-44
2023/06/03 06:55:53;;;;;;;8.25;4.15;;;;;;;16.16;71.36;98669.03;4109372;28;20210;-45
2023/06/03 06:57:55;;;;;;;3.83;2.92;;;;;;;16.27;70.86;98667.88;4127715;28;20209;-44
2023/06/03 06:59:57;;;;;;;5.93;3.25;;;;;;;16.28;71.23;98661.25;4110763;28;20277;-44
2023/06/03 07:01:59;;;;;;;4.22;2.75;;;;;;;16.29;71.67;98668.41;4110769;28;20217;-44
2023/06/03 07:04:01;;;;;;;4.05;2.83;;;;;;;16.75;70.33;98667.09;4110564;28;20321;-43
2023/06/03 07:06:03;;;;;;;6.30;3.35;;;;;;;17.04;70.29;98677.13;4095092;28;20235;-43
2023/06/03 07:08:05;;;;;;;4.35;2.83;;;;;;;16.82;68.76;98678.66;4110040;28;20217;-44
2023/06/03 07:10:07;;;;;;;4.93;2.95;;;;;;;16.80;69.79;98669.00;4110964;28;20214;-44
2023/06/03 07:12:09;;;;;;;5.85;3.10;;;;;;;17.08;68.20;98671.84;4108767;28;20262;-43
2023/06/03 07:14:12;;;;;;;4.65;2.80;;;;;;;17.17;68.42;98675.63;4108403;28;20616;-44
2023/06/03 07:16:14;;;;;;;11.68;3.28;;;;;;;17.19;67.94;98667.91;4109088;28;20287;-44
2023/06/03 07:18:16;;;;;;;6.78;2.47;;;;;;;17.12;68.02;98672.94;4125395;28;20210;-44
2023/06/03 07:20:20;;;;;;;5.70;2.58;;;;;;;17.30;67.72;98674.97;4124968;28;20209;-44
2023/06/03 07:22:22;;;;;;;4.03;3.53;;;;;;;17.13;67.01;98669.84;4123681;28;20273;-43
2023/06/03 07:24:24;;;;;;;5.38;2.83;;;;;;;17.40;67.05;98670.22;4104012;28;20656;-45
2023/06/03 07:26:32;;;;;;;4.25;3.72;;;;;;;17.43;67.40;98668.81;4109588;28;20253;-44
2023/06/03 07:28:35;;;;;;;3.72;2.85;;;;;;;17.28;66.62;98660.63;4107926;28;20268;-43
2023/06/03 07:30:38;;;;;;;5.43;3.83;;;;;;;17.75;67.32;98672.66;4122944;28;20321;-45
2023/06/03 07:32:39;;;;;;;7.13;3.25;;;;;;;18.18;66.82;98673.59;4103059;28;20254;-43
2023/06/03 07:34:41;;;;;;;3.55;3.00;;;;;;;17.77;65.13;98669.59;4108030;28;20258;-44
2023/06/03 07:36:43;;;;;;;8.40;3.17;;;;;;;17.77;66.84;98669.59;4108679;28;20203;-44
2023/06/03 07:39:06;;;;;;;4.35;3.92;;;;;;;18.38;65.81;98673.38;4125072;28;20294;-45
2023/06/03 07:41:09;;;;;;;7.30;2.67;;;;;;;18.12;64.76;98672.00;4124451;28;20246;-44
2023/06/03 07:43:11;;;;;;;4.60;3.10;;;;;;;18.44;65.16;98669.41;4126796;28;20240;-43
2023/06/03 07:45:13;;;;;;;4.75;3.33;;;;;;;17.99;65.18;98672.69;4125338;28;20206;-44
2023/06/03 07:47:16;;;;;;;3.35;2.45;;;;;;;18.05;65.61;98665.97;4124274;28;20217;-44
2023/06/03 07:49:19;;;;;;;4.65;3.10;;;;;;;18.26;64.96;98662.66;4109567;28;20257;-44
2023/06/03 07:51:21;;;;;;;4.03;2.67;;;;;;;18.14;64.48;98664.19;4106851;28;20274;-44
2023/06/03 07:53:24;;;;;;;5.05;2.78;;;;;;;18.51;64.80;98669.88;4105211;28;20614;-44
2023/06/03 07:55:47;;;;;;;4.88;2.55;;;;;;;18.68;62.03;98673.78;4109472;28;20280;-44
2023/06/03 07:57:49;;;;;;;3.53;2.55;;;;;;;18.24;62.87;98686.25;4106270;28;20211;-43
2023/06/03 07:59:55;;;;;;;3.20;2.80;;;;;;;18.72;63.38;98676.78;4106651;28;20608;-45
2023/06/03 08:01:58;;;;;;;5.45;2.55;;;;;;;19.16;62.72;98674.44;4103030;28;20302;-44
2023/06/03 08:04:00;;;;;;;8.63;3.08;;;;;;;18.58;62.08;98679.44;4106957;28;20234;-45
2023/06/03 08:06:02;;;;;;;5.75;2.85;;;;;;;18.55;63.25;98676.44;4109712;28;20656;-44
2023/06/03 08:08:05;;;;;;;3.28;2.65;;;;;;;19.35;63.03;98675.28;4094715;28;20222;-44
2023/06/03 08:10:09;;;;;;;4.10;3.13;;;;;;;19.41;62.00;98682.41;4109885;28;20206;-44
2023/06/03 08:12:11;;;;;;;10.57;3.50;;;;;;;18.82;61.47;98682.16;4095235;28;20207;-44
2023/06/03 08:14:12;;;;;;;3.38;2.78;;;;;;;19.35;60.81;98689.16;4093759;28;20370;-44
2023/06/03 08:16:17;;;;;;;6.85;2.95;;;;;;;19.53;60.38;98689.13;4104512;28;20214;-44
2023/06/03 08:18:43;;;;;;;5.20;2.75;;;;;;;19.91;59.57;98689.84;4111723;28;20292;-44
2023/06/03 08:20:45;;;;;;;5.43;3.20;;;;;;;19.62;59.65;98692.03;4125323;28;20668;-44
2023/06/03 08:22:47;;;;;;;3.72;2.92;;;;;;;19.33;60.04;98694.19;4112018;28;20226;-44
2023/06/03 08:24:49;;;;;;;3.42;2.60;;;;;;;19.91;59.15;98684.28;4111370;28;20202;-45
2023/06/03 08:26:50;;;;;;;4.75;2.90;;;;;;;19.41;58.78;98696.28;4112842;28;20296;-44
2023/06/03 08:28:52;;;;;;;8.20;3.00;;;;;;;19.19;60.06;98691.31;4113657;28;20211;-44
2023/06/03 08:30:54;;;;;;;10.50;3.90;;;;;;;19.15;60.11;98692.22;4114778;28;20206;-43
2023/06/03 08:32:56;;;;;;;3.42;2.60;;;;;;;19.71;59.72;98693.81;4110900;28;20235;-43
2023/06/03 08:34:58;;;;;;;3.33;2.45;;;;;;;19.89;58.91;98689.31;4109537;28;20230;-44
2023/06/03 08:37:00;;;;;;;5.78;2.65;;;;;;;19.76;58.35;98698.44;4104906;28;20610;-44
2023/06/03 08:39:02;;;;;;;3.33;2.13;;;;;;;19.96;58.40;98695.28;4107994;28;20217;-43
2023/06/03 08:41:05;;;;;;;4.95;2.85;;;;;;;19.74;57.26;98695.16;4112343;28;20720;-44
2023/06/03 08:43:07;;;;;;;5.53;4.00;;;;;;;19.56;59.78;98698.78;4107330;28;20234;-44
2023/06/03 08:45:17;;;;;;;9.50;3.35;;;;;;;19.63;58.51;98693.66;4109053;28;20207;-43
2023/06/03 08:47:52;;;;;;;4.32;3.47;;;;;;;20.17;59.11;98694.63;4113908;28;20790;-43
2023/06/03 08:50:00;;;;;;;8.23;3.17;;;;;;;20.11;58.98;98695.88;4110269;28;20264;-44
2023/06/03 08:52:03;;;;;;;4.93;2.72;;;;;;;20.74;57.26;98687.59;4113865;28;20295;-43
2023/06/03 08:54:14;;;;;;;6.65;2.47;;;;;;;20.61;56.57;98685.66;4106283;28;20293;-44
2023/06/03 08:56:18;;;;;;;4.80;3.13;;;;;;;20.99;56.08;98689.88;4108934;28;20207;-44
2023/06/03 08:58:43;;;;;;;3.33;2.33;;;;;;;20.43;55.67;98681.03;4105684;28;20727;-44
2023/06/03 09:00:46;;;;;;;10.27;2.80;;;;;;;20.47;56.01;98684.88;4106103;28;20211;-43
2023/06/03 09:02:49;;;;;;;7.20;3.30;;;;;;;20.64;56.41;98682.28;4113166;28;20230;-44
2023/06/03 09:04:52;;;;;;;5.88;2.83;;;;;;;20.54;56.65;98682.50;4112464;28;20290;-44
2023/06/03 09:06:55;;;;;;;3.42;3.13;;;;;;;20.05;56.04;98685.13;4111827;28;20206;-43
2023/06/03 09:08:57;;;;;;;7.10;3.13;;;;;;;20.74;57.25;98682.88;4112464;28;20213;-43
2023/06/03 09:11:00;;;;;;;4.85;3.25;;;;;;;21.50;56.52;98679.97;4109517;28;20221;-44
2023/06/03 09:13:02;;;;;;;5.43;2.97;;;;;;;21.68;53.15;98692.09;4087478;28;20235;-44
2023/06/03 09:15:05;;;;;;;5.35;3.22;;;;;;;21.45;54.29;98698.78;4097095;28;20237;-44
2023/06/03 09:17:06;;;;;;;4.78;2.67;;;;;;;21.95;54.01;98683.56;4112057;28;20261;-44
2023/06/03 09:19:09;;;;;;;12.95;3.53;;;;;;;21.44;53.40;98686.00;4113222;28;20214;-45
2023/06/03 09:21:10;;;;;;;3.55;2.90;;;;;;;21.42;54.17;98691.03;4113279;28;20222;-44
2023/06/03 09:23:13;;;;;;;3.90;3.00;;;;;;;21.11;54.63;98696.53;4112170;28;20226;-44
2023/06/03 09:25:14;;;;;;;4.82;2.72;;;;;;;21.03;54.14;98688.09;4113100;28;20365;-44
2023/06/03 09:27:16;;;;;;;6.70;2.75;;;;;;;20.78;55.04;98688.66;4111994;28;20217;-44
2023/06/03 09:29:20;;;;;;;3.83;2.60;;;;;;;21.29;55.67;98678.00;4104202;28;20213;-44
2023/06/03 09:31:22;;;;;;;6.50;3.10;;;;;;;21.48;55.04;98682.28;4091823;28;20211;-43
2023/06/03 09:33:24;;;;;;;3.63;2.95;;;;;;;21.96;53.33;98682.44;4106388;28;20258;-44
2023/06/03 09:35:26;;;;;;;2.95;2.47;;;;;;;21.61;53.57;98686.13;4106988;28;20217;-44
2023/06/03 09:37:27;;;;;;;5.18;3.28;;;;;;;21.20;52.91;98685.47;4114148;28;20202;-44
2023/06/03 09:39:35;;;;;;;3.47;3.10;;;;;;;21.76;54.01;98682.97;4110161;28;20240;-44
2023/06/03 09:41:37;;;;;;;4.65;2.65;;;;;;;22.13;53.33;98688.09;4110949;28;20238;-45